sensor_id;sensor_type;location;lat;lon;timestamp;temperature;humidity
20946;DHT22;10632;51.276;7.116;2022-08-19T00:00:51;18.70;99.90
20946;DHT22;10632;51.276;7.116;2022-08-19T00:03:18;18.70;99.90
20946;DHT22;10632;51.276;7.116;2022-08-19T00:05:45;18.70;99.90
20946;DHT22;10632;51.276;7.116;2022-08-19T00:08:12;18.70;99.90
20946;DHT22;10632;51.276;7.116;2022-08-19T00:10:39;18.70;99.90
20946;DHT22;10632;51.276;7.116;2022-08-19T00:13:07;18.70;99.90
20946;DHT22;10632;51.276;7.116;2022-08-19T00:15:35;18.60;99.90
20946;DHT22;10632;51.276;7.116;2022-08-19T00:18:03;18.60;99.90
20946;DHT22;10632;51.276;7.116;2022-08-19T00:20:30;18.60;99.90
20946;DHT22;10632;51.276;7.116;2022-08-19T00:22:57;18.60;99.90
20946;DHT22;10632;51.276;7.116;2022-08-19T00:25:24;18.70;99.90
20946;DHT22;10632;51.276;7.116;2022-08-19T00:27:50;18.60;99.90
20946;DHT22;10632;51.276;7.116;2022-08-19T00:30:19;18.70;99.90
20946;DHT22;10632;51.276;7.116;2022-08-19T00:32:46;18.70;99.90
20946;DHT22;10632;51.276;7.116;2022-08-19T00:35:13;18.70;99.90
20946;DHT22;10632;51.276;7.116;2022-08-19T00:37:43;18.70;99.90
20946;DHT22;10632;51.276;7.116;2022-08-19T00:40:11;18.70;99.90
20946;DHT22;10632;51.276;7.116;2022-08-19T00:42:42;18.70;99.90
20946;DHT22;10632;51.276;7.116;2022-08-19T00:45:11;18.70;99.90
20946;DHT22;10632;51.276;7.116;2022-08-19T00:47:40;18.70;99.90
20946;DHT22;10632;51.276;7.116;2022-08-19T00:50:08;18.70;99.90
20946;DHT22;10632;51.276;7.116;2022-08-19T00:52:39;18.60;99.90
20946;DHT22;10632;51.276;7.116;2022-08-19T00:55:14;18.60;99.90
20946;DHT22;10632;51.276;7.116;2022-08-19T00:57:46;18.50;99.90
20946;DHT22;10632;51.276;7.116;2022-08-19T01:00:18;18.50;99.90
20946;DHT22;10632;51.276;7.116;2022-08-19T01:02:46;18.40;99.90
20946;DHT22;10632;51.276;7.116;2022-08-19T01:05:18;18.30;99.90
20946;DHT22;10632;51.276;7.116;2022-08-19T01:07:47;18.30;99.90
20946;DHT22;10632;51.276;7.116;2022-08-19T01:10:18;18.20;99.90
20946;DHT22;10632;51.276;7.116;2022-08-19T01:12:46;18.20;99.90
20946;DHT22;10632;51.276;7.116;2022-08-19T01:15:17;18.20;99.90
20946;DHT22;10632;51.276;7.116;2022-08-19T01:17:47;18.10;99.90
20946;DHT22;10632;51.276;7.116;2022-08-19T01:20:17;18.10;99.90
20946;DHT22;10632;51.276;7.116;2022-08-19T01:22:48;18.10;99.90
20946;DHT22;10632;51.276;7.116;2022-08-19T01:25:20;18.10;99.90
20946;DHT22;10632;51.276;7.116;2022-08-19T01:27:49;18.10;99.90
20946;DHT22;10632;51.276;7.116;2022-08-19T01:30:20;18.00;99.90
20946;DHT22;10632;51.276;7.116;2022-08-19T01:32:48;18.00;99.90
20946;DHT22;10632;51.276;7.116;2022-08-19T01:35:16;18.00;99.90
20946;DHT22;10632;51.276;7.116;2022-08-19T01:37:50;18.00;99.90
20946;DHT22;10632;51.276;7.116;2022-08-19T01:40:20;17.90;99.90
20946;DHT22;10632;51.276;7.116;2022-08-19T01:42:47;17.90;99.90
20946;DHT22;10632;51.276;7.116;2022-08-19T01:45:15;18.00;99.90
20946;DHT22;10632;51.276;7.116;2022-08-19T01:47:42;18.00;99.90
20946;DHT22;10632;51.276;7.116;2022-08-19T01:50:10;18.00;99.90
20946;DHT22;10632;51.276;7.116;2022-08-19T01:52:38;18.00;99.90
20946;DHT22;10632;51.276;7.116;2022-08-19T01:55:10;18.00;99.90
20946;DHT22;10632;51.276;7.116;2022-08-19T01:57:39;18.00;99.90
20946;DHT22;10632;51.276;7.116;2022-08-19T02:00:10;18.00;99.90
20946;DHT22;10632;51.276;7.116;2022-08-19T02:02:38;18.10;99.90
20946;DHT22;10632;51.276;7.116;2022-08-19T02:05:05;18.00;99.90
20946;DHT22;10632;51.276;7.116;2022-08-19T02:07:33;18.00;99.90
20946;DHT22;10632;51.276;7.116;2022-08-19T02:10:02;18.00;99.90
20946;DHT22;10632;51.276;7.116;2022-08-19T02:12:31;18.00;99.90
20946;DHT22;10632;51.276;7.116;2022-08-19T02:14:59;18.00;99.90
20946;DHT22;10632;51.276;7.116;2022-08-19T02:17:26;18.00;99.90
20946;DHT22;10632;51.276;7.116;2022-08-19T02:19:53;18.10;99.90
20946;DHT22;10632;51.276;7.116;2022-08-19T02:22:21;18.10;99.90
20946;DHT22;10632;51.276;7.116;2022-08-19T02:24:48;18.10;99.90
20946;DHT22;10632;51.276;7.116;2022-08-19T02:27:15;18.10;99.90
20946;DHT22;10632;51.276;7.116;2022-08-19T02:29:44;18.10;99.90
20946;DHT22;10632;51.276;7.116;2022-08-19T02:32:12;18.10;99.90
20946;DHT22;10632;51.276;7.116;2022-08-19T02:34:39;18.10;99.90
20946;DHT22;10632;51.276;7.116;2022-08-19T02:37:06;18.10;99.90
20946;DHT22;10632;51.276;7.116;2022-08-19T02:39:53;18.00;99.90
20946;DHT22;10632;51.276;7.116;2022-08-19T02:42:20;17.90;99.90
20946;DHT22;10632;51.276;7.116;2022-08-19T02:44:48;17.80;99.90
20946;DHT22;10632;51.276;7.116;2022-08-19T02:47:15;17.70;99.90
20946;DHT22;10632;51.276;7.116;2022-08-19T02:49:42;17.70;99.90
20946;DHT22;10632;51.276;7.116;2022-08-19T02:52:09;17.60;99.90
20946;DHT22;10632;51.276;7.116;2022-08-19T02:54:37;17.60;99.90
20946;DHT22;10632;51.276;7.116;2022-08-19T02:57:04;17.60;99.90
20946;DHT22;10632;51.276;7.116;2022-08-19T02:59:32;17.70;99.90
20946;DHT22;10632;51.276;7.116;2022-08-19T03:02:00;17.70;99.90
20946;DHT22;10632;51.276;7.116;2022-08-19T03:04:27;17.70;99.90
20946;DHT22;10632;51.276;7.116;2022-08-19T03:06:55;17.80;99.90
20946;DHT22;10632;51.276;7.116;2022-08-19T03:09:22;17.80;99.90
20946;DHT22;10632;51.276;7.116;2022-08-19T03:11:52;17.90;99.90
20946;DHT22;10632;51.276;7.116;2022-08-19T03:14:19;17.90;99.90
20946;DHT22;10632;51.276;7.116;2022-08-19T03:16:48;17.90;99.90
20946;DHT22;10632;51.276;7.116;2022-08-19T03:19:18;17.90;99.90
20946;DHT22;10632;51.276;7.116;2022-08-19T03:21:46;18.00;99.90
20946;DHT22;10632;51.276;7.116;2022-08-19T03:24:15;18.00;99.90
20946;DHT22;10632;51.276;7.116;2022-08-19T03:26:44;18.00;99.90
20946;DHT22;10632;51.276;7.116;2022-08-19T03:29:12;18.00;99.90
20946;DHT22;10632;51.276;7.116;2022-08-19T03:31:40;18.10;99.90
20946;DHT22;10632;51.276;7.116;2022-08-19T03:34:09;18.10;99.90
20946;DHT22;10632;51.276;7.116;2022-08-19T03:36:39;18.10;99.90
20946;DHT22;10632;51.276;7.116;2022-08-19T03:39:06;18.10;99.90
20946;DHT22;10632;51.276;7.116;2022-08-19T03:41:37;18.10;99.90
20946;DHT22;10632;51.276;7.116;2022-08-19T03:44:05;18.10;99.90
20946;DHT22;10632;51.276;7.116;2022-08-19T03:46:34;18.10;99.90
20946;DHT22;10632;51.276;7.116;2022-08-19T03:49:03;18.20;99.90
20946;DHT22;10632;51.276;7.116;2022-08-19T03:51:34;18.20;99.90
20946;DHT22;10632;51.276;7.116;2022-08-19T03:54:06;18.10;99.90
20946;DHT22;10632;51.276;7.116;2022-08-19T03:56:33;18.10;99.90
20946;DHT22;10632;51.276;7.116;2022-08-19T03:59:01;18.10;99.90
20946;DHT22;10632;51.276;7.116;2022-08-19T04:01:29;18.10;99.90
20946;DHT22;10632;51.276;7.116;2022-08-19T04:03:56;18.00;99.90
20946;DHT22;10632;51.276;7.116;2022-08-19T04:06:26;18.00;99.90
20946;DHT22;10632;51.276;7.116;2022-08-19T04:08:55;17.90;99.90
20946;DHT22;10632;51.276;7.116;2022-08-19T04:11:26;17.90;99.90
20946;DHT22;10632;51.276;7.116;2022-08-19T04:13:55;17.90;99.90
20946;DHT22;10632;51.276;7.116;2022-08-19T04:16:24;17.90;99.90
20946;DHT22;10632;51.276;7.116;2022-08-19T04:18:54;17.90;99.90
20946;DHT22;10632;51.276;7.116;2022-08-19T04:21:25;17.90;99.90
20946;DHT22;10632;51.276;7.116;2022-08-19T04:23:56;17.90;99.90
20946;DHT22;10632;51.276;7.116;2022-08-19T04:26:27;17.80;99.90
20946;DHT22;10632;51.276;7.116;2022-08-19T04:28:54;17.80;99.90
20946;DHT22;10632;51.276;7.116;2022-08-19T04:31:23;17.80;99.90
20946;DHT22;10632;51.276;7.116;2022-08-19T04:33:51;17.80;99.90
20946;DHT22;10632;51.276;7.116;2022-08-19T04:36:21;17.90;99.90
20946;DHT22;10632;51.276;7.116;2022-08-19T04:38:48;17.90;99.90
20946;DHT22;10632;51.276;7.116;2022-08-19T04:41:16;17.80;99.90
20946;DHT22;10632;51.276;7.116;2022-08-19T04:44:02;17.80;99.90
20946;DHT22;10632;51.276;7.116;2022-08-19T04:46:30;17.80;99.90
20946;DHT22;10632;51.276;7.116;2022-08-19T04:48:57;17.80;99.90
20946;DHT22;10632;51.276;7.116;2022-08-19T04:51:25;17.80;99.90
20946;DHT22;10632;51.276;7.116;2022-08-19T04:53:52;17.70;99.90
20946;DHT22;10632;51.276;7.116;2022-08-19T04:56:20;17.70;99.90
20946;DHT22;10632;51.276;7.116;2022-08-19T04:58:49;17.70;99.90
20946;DHT22;10632;51.276;7.116;2022-08-19T05:01:20;17.70;99.90
20946;DHT22;10632;51.276;7.116;2022-08-19T05:03:47;17.70;99.90
20946;DHT22;10632;51.276;7.116;2022-08-19T05:06:16;17.70;99.90
20946;DHT22;10632;51.276;7.116;2022-08-19T05:08:44;17.70;99.90
20946;DHT22;10632;51.276;7.116;2022-08-19T05:11:14;17.70;99.90
20946;DHT22;10632;51.276;7.116;2022-08-19T05:13:41;17.80;99.90
20946;DHT22;10632;51.276;7.116;2022-08-19T05:16:10;17.80;99.90
20946;DHT22;10632;51.276;7.116;2022-08-19T05:18:39;17.80;99.90
20946;DHT22;10632;51.276;7.116;2022-08-19T05:21:25;17.80;99.90
20946;DHT22;10632;51.276;7.116;2022-08-19T05:24:11;17.80;99.90
20946;DHT22;10632;51.276;7.116;2022-08-19T05:26:41;17.80;99.90
20946;DHT22;10632;51.276;7.116;2022-08-19T05:29:09;17.80;99.90
20946;DHT22;10632;51.276;7.116;2022-08-19T05:31:37;17.80;99.90
20946;DHT22;10632;51.276;7.116;2022-08-19T05:34:06;17.90;99.90
20946;DHT22;10632;51.276;7.116;2022-08-19T05:36:35;17.90;99.90
20946;DHT22;10632;51.276;7.116;2022-08-19T05:39:05;17.90;99.90
20946;DHT22;10632;51.276;7.116;2022-08-19T05:41:32;17.90;99.90
20946;DHT22;10632;51.276;7.116;2022-08-19T05:44:02;17.90;99.90
20946;DHT22;10632;51.276;7.116;2022-08-19T05:46:31;17.90;99.90
20946;DHT22;10632;51.276;7.116;2022-08-19T05:48:58;17.90;99.90
20946;DHT22;10632;51.276;7.116;2022-08-19T05:51:26;17.90;99.90
20946;DHT22;10632;51.276;7.116;2022-08-19T05:53:53;17.90;99.90
20946;DHT22;10632;51.276;7.116;2022-08-19T05:56:20;17.90;99.90
20946;DHT22;10632;51.276;7.116;2022-08-19T05:58:47;18.00;99.90
20946;DHT22;10632;51.276;7.116;2022-08-19T06:01:16;18.00;99.90
20946;DHT22;10632;51.276;7.116;2022-08-19T06:03:44;18.00;99.90
20946;DHT22;10632;51.276;7.116;2022-08-19T06:06:12;18.00;99.90
20946;DHT22;10632;51.276;7.116;2022-08-19T06:08:41;18.00;99.90
20946;DHT22;10632;51.276;7.116;2022-08-19T06:11:19;18.00;99.90
20946;DHT22;10632;51.276;7.116;2022-08-19T06:13:47;18.00;99.90
20946;DHT22;10632;51.276;7.116;2022-08-19T06:16:17;17.90;99.90
20946;DHT22;10632;51.276;7.116;2022-08-19T06:18:48;18.00;99.90
20946;DHT22;10632;51.276;7.116;2022-08-19T06:21:21;18.00;99.90
20946;DHT22;10632;51.276;7.116;2022-08-19T06:23:50;18.00;99.90
20946;DHT22;10632;51.276;7.116;2022-08-19T06:26:18;18.00;99.90
20946;DHT22;10632;51.276;7.116;2022-08-19T06:28:47;18.00;99.90
20946;DHT22;10632;51.276;7.116;2022-08-19T06:31:14;18.00;99.90
20946;DHT22;10632;51.276;7.116;2022-08-19T06:33:41;18.10;99.90
20946;DHT22;10632;51.276;7.116;2022-08-19T06:36:16;18.10;99.90
20946;DHT22;10632;51.276;7.116;2022-08-19T06:38:43;18.10;99.90
20946;DHT22;10632;51.276;7.116;2022-08-19T06:41:12;18.10;99.90
20946;DHT22;10632;51.276;7.116;2022-08-19T06:43:39;18.10;99.90
20946;DHT22;10632;51.276;7.116;2022-08-19T06:46:10;18.10;99.90
20946;DHT22;10632;51.276;7.116;2022-08-19T06:48:38;18.10;99.90
20946;DHT22;10632;51.276;7.116;2022-08-19T06:51:05;18.10;99.90
20946;DHT22;10632;51.276;7.116;2022-08-19T06:53:47;18.10;99.90
20946;DHT22;10632;51.276;7.116;2022-08-19T06:56:30;18.00;99.90
20946;DHT22;10632;51.276;7.116;2022-08-19T06:59:05;18.00;99.90
20946;DHT22;10632;51.276;7.116;2022-08-19T07:01:38;18.00;99.90
20946;DHT22;10632;51.276;7.116;2022-08-19T07:04:16;18.00;99.90
20946;DHT22;10632;51.276;7.116;2022-08-19T07:06:55;18.00;99.90
20946;DHT22;10632;51.276;7.116;2022-08-19T07:09:30;18.00;99.90
20946;DHT22;10632;51.276;7.116;2022-08-19T07:12:08;18.00;99.90
20946;DHT22;10632;51.276;7.116;2022-08-19T07:14:38;18.00;99.90
20946;DHT22;10632;51.276;7.116;2022-08-19T07:17:11;18.00;99.90
20946;DHT22;10632;51.276;7.116;2022-08-19T07:19:39;18.00;99.90
20946;DHT22;10632;51.276;7.116;2022-08-19T07:22:09;18.10;99.90
20946;DHT22;10632;51.276;7.116;2022-08-19T07:24:37;18.10;99.90
20946;DHT22;10632;51.276;7.116;2022-08-19T07:27:06;18.10;99.90
20946;DHT22;10632;51.276;7.116;2022-08-19T07:29:36;18.10;99.90
20946;DHT22;10632;51.276;7.116;2022-08-19T07:32:04;18.10;99.90
20946;DHT22;10632;51.276;7.116;2022-08-19T07:34:32;18.20;99.90
20946;DHT22;10632;51.276;7.116;2022-08-19T07:37:02;18.20;99.90
20946;DHT22;10632;51.276;7.116;2022-08-19T07:39:31;18.20;99.90
20946;DHT22;10632;51.276;7.116;2022-08-19T07:42:00;18.30;99.90
20946;DHT22;10632;51.276;7.116;2022-08-19T07:44:29;18.30;99.90
20946;DHT22;10632;51.276;7.116;2022-08-19T07:46:56;18.30;99.90
20946;DHT22;10632;51.276;7.116;2022-08-19T07:49:24;18.40;99.90
20946;DHT22;10632;51.276;7.116;2022-08-19T07:51:53;18.40;99.90
20946;DHT22;10632;51.276;7.116;2022-08-19T07:54:22;18.40;99.90
20946;DHT22;10632;51.276;7.116;2022-08-19T07:56:49;18.40;99.90
20946;DHT22;10632;51.276;7.116;2022-08-19T07:59:19;18.50;99.90
20946;DHT22;10632;51.276;7.116;2022-08-19T08:01:48;18.50;99.90
20946;DHT22;10632;51.276;7.116;2022-08-19T08:04:19;18.60;99.90
20946;DHT22;10632;51.276;7.116;2022-08-19T08:07:06;18.60;99.90
20946;DHT22;10632;51.276;7.116;2022-08-19T08:09:51;18.70;99.90
20946;DHT22;10632;51.276;7.116;2022-08-19T08:12:20;18.70;99.90
20946;DHT22;10632;51.276;7.116;2022-08-19T08:14:50;18.80;99.90
20946;DHT22;10632;51.276;7.116;2022-08-19T08:17:22;18.90;99.90
20946;DHT22;10632;51.276;7.116;2022-08-19T08:19:49;18.90;99.90
20946;DHT22;10632;51.276;7.116;2022-08-19T08:22:19;19.00;99.90
20946;DHT22;10632;51.276;7.116;2022-08-19T08:25:04;19.00;99.90
20946;DHT22;10632;51.276;7.116;2022-08-19T08:27:35;19.10;99.90
20946;DHT22;10632;51.276;7.116;2022-08-19T08:30:05;19.20;99.90
20946;DHT22;10632;51.276;7.116;2022-08-19T08:32:36;19.30;99.90
20946;DHT22;10632;51.276;7.116;2022-08-19T08:35:04;19.40;99.90
20946;DHT22;10632;51.276;7.116;2022-08-19T08:37:31;19.60;99.90
20946;DHT22;10632;51.276;7.116;2022-08-19T08:39:58;19.70;99.90
20946;DHT22;10632;51.276;7.116;2022-08-19T08:42:31;19.80;99.90
20946;DHT22;10632;51.276;7.116;2022-08-19T08:45:03;19.90;99.90
20946;DHT22;10632;51.276;7.116;2022-08-19T08:47:37;19.90;99.90
20946;DHT22;10632;51.276;7.116;2022-08-19T08:50:10;19.90;99.90
20946;DHT22;10632;51.276;7.116;2022-08-19T08:52:44;20.00;99.90
20946;DHT22;10632;51.276;7.116;2022-08-19T08:55:15;20.00;99.90
20946;DHT22;10632;51.276;7.116;2022-08-19T08:57:53;20.00;99.90
20946;DHT22;10632;51.276;7.116;2022-08-19T09:00:25;20.10;99.90
20946;DHT22;10632;51.276;7.116;2022-08-19T09:02:55;20.10;99.90
20946;DHT22;10632;51.276;7.116;2022-08-19T09:05:31;20.20;99.90
20946;DHT22;10632;51.276;7.116;2022-08-19T09:08:04;20.20;99.90
20946;DHT22;10632;51.276;7.116;2022-08-19T09:10:38;20.30;99.90
20946;DHT22;10632;51.276;7.116;2022-08-19T09:13:11;20.40;99.90
20946;DHT22;10632;51.276;7.116;2022-08-19T09:15:44;20.60;99.90
20946;DHT22;10632;51.276;7.116;2022-08-19T09:18:14;20.70;99.90
20946;DHT22;10632;51.276;7.116;2022-08-19T09:20:41;20.80;99.90
20946;DHT22;10632;51.276;7.116;2022-08-19T09:23:09;20.90;99.90
20946;DHT22;10632;51.276;7.116;2022-08-19T09:25:36;21.00;99.90
20946;DHT22;10632;51.276;7.116;2022-08-19T09:28:05;21.10;99.90
20946;DHT22;10632;51.276;7.116;2022-08-19T09:30:36;21.20;99.90
20946;DHT22;10632;51.276;7.116;2022-08-19T09:33:05;21.30;99.90
20946;DHT22;10632;51.276;7.116;2022-08-19T09:35:34;21.40;99.90
20946;DHT22;10632;51.276;7.116;2022-08-19T09:38:02;21.50;99.90
20946;DHT22;10632;51.276;7.116;2022-08-19T09:40:30;21.60;99.90
20946;DHT22;10632;51.276;7.116;2022-08-19T09:42:59;21.70;99.90
20946;DHT22;10632;51.276;7.116;2022-08-19T09:45:28;21.80;99.90
20946;DHT22;10632;51.276;7.116;2022-08-19T09:47:56;21.90;99.90
20946;DHT22;10632;51.276;7.116;2022-08-19T09:50:24;21.90;99.90
20946;DHT22;10632;51.276;7.116;2022-08-19T09:52:52;22.00;99.90
20946;DHT22;10632;51.276;7.116;2022-08-19T09:55:20;22.00;99.90
20946;DHT22;10632;51.276;7.116;2022-08-19T09:57:48;22.10;99.90
20946;DHT22;10632;51.276;7.116;2022-08-19T10:00:15;22.10;99.90
20946;DHT22;10632;51.276;7.116;2022-08-19T10:02:43;22.20;99.90
20946;DHT22;10632;51.276;7.116;2022-08-19T10:05:10;22.20;99.90
20946;DHT22;10632;51.276;7.116;2022-08-19T10:07:56;22.20;99.90
20946;DHT22;10632;51.276;7.116;2022-08-19T10:10:23;22.10;99.90
20946;DHT22;10632;51.276;7.116;2022-08-19T10:12:50;22.10;99.90
20946;DHT22;10632;51.276;7.116;2022-08-19T10:15:18;22.10;99.90
20946;DHT22;10632;51.276;7.116;2022-08-19T10:17:46;22.20;99.90
20946;DHT22;10632;51.276;7.116;2022-08-19T10:20:14;22.30;99.90
20946;DHT22;10632;51.276;7.116;2022-08-19T10:22:41;22.30;99.90
20946;DHT22;10632;51.276;7.116;2022-08-19T10:25:10;22.40;99.90
20946;DHT22;10632;51.276;7.116;2022-08-19T10:27:42;22.40;99.90
20946;DHT22;10632;51.276;7.116;2022-08-19T10:30:10;22.40;99.90
20946;DHT22;10632;51.276;7.116;2022-08-19T10:32:37;22.50;99.90
20946;DHT22;10632;51.276;7.116;2022-08-19T10:35:05;22.60;99.90
20946;DHT22;10632;51.276;7.116;2022-08-19T10:37:34;22.70;99.90
20946;DHT22;10632;51.276;7.116;2022-08-19T10:40:01;22.70;99.90
20946;DHT22;10632;51.276;7.116;2022-08-19T10:42:30;22.70;99.90
20946;DHT22;10632;51.276;7.116;2022-08-19T10:44:57;22.80;99.90
20946;DHT22;10632;51.276;7.116;2022-08-19T10:47:24;22.80;99.90
20946;DHT22;10632;51.276;7.116;2022-08-19T10:49:53;22.90;99.90
20946;DHT22;10632;51.276;7.116;2022-08-19T10:52:39;22.90;99.90
20946;DHT22;10632;51.276;7.116;2022-08-19T10:55:07;22.90;99.90
20946;DHT22;10632;51.276;7.116;2022-08-19T10:57:53;22.90;99.90
20946;DHT22;10632;51.276;7.116;2022-08-19T11:00:20;22.90;99.90
20946;DHT22;10632;51.276;7.116;2022-08-19T11:02:48;22.80;99.90
20946;DHT22;10632;51.276;7.116;2022-08-19T11:05:16;22.70;99.90
20946;DHT22;10632;51.276;7.116;2022-08-19T11:07:43;22.60;99.90
20946;DHT22;10632;51.276;7.116;2022-08-19T11:10:15;22.70;99.90
20946;DHT22;10632;51.276;7.116;2022-08-19T11:12:44;22.70;99.90
20946;DHT22;10632;51.276;7.116;2022-08-19T11:15:15;22.80;99.90
20946;DHT22;10632;51.276;7.116;2022-08-19T11:17:43;22.80;99.90
20946;DHT22;10632;51.276;7.116;2022-08-19T11:20:11;22.80;99.90
20946;DHT22;10632;51.276;7.116;2022-08-19T11:22:39;23.00;99.90
20946;DHT22;10632;51.276;7.116;2022-08-19T11:25:08;23.30;99.90
20946;DHT22;10632;51.276;7.116;2022-08-19T11:27:38;23.70;99.90
20946;DHT22;10632;51.276;7.116;2022-08-19T11:30:09;23.90;99.90
20946;DHT22;10632;51.276;7.116;2022-08-19T11:32:38;23.80;99.90
20946;DHT22;10632;51.276;7.116;2022-08-19T11:35:05;23.70;99.90
20946;DHT22;10632;51.276;7.116;2022-08-19T11:37:33;23.70;99.90
20946;DHT22;10632;51.276;7.116;2022-08-19T11:40:04;24.00;99.90
20946;DHT22;10632;51.276;7.116;2022-08-19T11:42:38;24.20;99.90
20946;DHT22;10632;51.276;7.116;2022-08-19T11:45:23;24.40;99.90
20946;DHT22;10632;51.276;7.116;2022-08-19T11:47:51;24.60;99.90
20946;DHT22;10632;51.276;7.116;2022-08-19T11:50:19;24.40;99.90
20946;DHT22;10632;51.276;7.116;2022-08-19T11:52:46;24.30;99.90
20946;DHT22;10632;51.276;7.116;2022-08-19T11:55:15;24.10;99.90
20946;DHT22;10632;51.276;7.116;2022-08-19T11:57:42;24.30;99.90
20946;DHT22;10632;51.276;7.116;2022-08-19T12:00:10;24.40;99.90
20946;DHT22;10632;51.276;7.116;2022-08-19T12:02:39;24.40;99.90
20946;DHT22;10632;51.276;7.116;2022-08-19T12:05:09;24.30;99.90
20946;DHT22;10632;51.276;7.116;2022-08-19T12:07:36;24.30;99.90
20946;DHT22;10632;51.276;7.116;2022-08-19T12:10:04;24.50;99.90
20946;DHT22;10632;51.276;7.116;2022-08-19T12:12:31;24.80;99.90
20946;DHT22;10632;51.276;7.116;2022-08-19T12:14:58;25.00;99.90
20946;DHT22;10632;51.276;7.116;2022-08-19T12:17:26;25.10;99.90
20946;DHT22;10632;51.276;7.116;2022-08-19T12:19:53;25.20;99.90
20946;DHT22;10632;51.276;7.116;2022-08-19T12:22:22;25.40;99.90
20946;DHT22;10632;51.276;7.116;2022-08-19T12:24:49;25.40;99.90
20946;DHT22;10632;51.276;7.116;2022-08-19T12:27:18;25.40;99.90
20946;DHT22;10632;51.276;7.116;2022-08-19T12:29:45;25.40;99.90
20946;DHT22;10632;51.276;7.116;2022-08-19T12:32:13;25.40;99.90
20946;DHT22;10632;51.276;7.116;2022-08-19T12:34:40;25.40;99.90
20946;DHT22;10632;51.276;7.116;2022-08-19T12:37:08;25.50;99.90
20946;DHT22;10632;51.276;7.116;2022-08-19T12:39:39;25.60;99.90
20946;DHT22;10632;51.276;7.116;2022-08-19T12:42:07;25.60;99.90
20946;DHT22;10632;51.276;7.116;2022-08-19T12:44:36;25.80;99.90
20946;DHT22;10632;51.276;7.116;2022-08-19T12:47:04;26.00;99.90
20946;DHT22;10632;51.276;7.116;2022-08-19T12:49:32;26.10;99.90
20946;DHT22;10632;51.276;7.116;2022-08-19T12:51:59;26.30;99.90
20946;DHT22;10632;51.276;7.116;2022-08-19T12:54:27;26.50;99.90
20946;DHT22;10632;51.276;7.116;2022-08-19T12:56:56;26.60;99.90
20946;DHT22;10632;51.276;7.116;2022-08-19T12:59:23;26.80;99.40
20946;DHT22;10632;51.276;7.116;2022-08-19T13:01:50;26.80;98.40
20946;DHT22;10632;51.276;7.116;2022-08-19T13:04:17;26.90;98.90
20946;DHT22;10632;51.276;7.116;2022-08-19T13:06:44;26.90;98.70
20946;DHT22;10632;51.276;7.116;2022-08-19T13:09:11;26.90;98.90
20946;DHT22;10632;51.276;7.116;2022-08-19T13:11:38;26.80;99.00
20946;DHT22;10632;51.276;7.116;2022-08-19T13:14:06;26.60;99.30
20946;DHT22;10632;51.276;7.116;2022-08-19T13:16:33;26.30;99.40
20946;DHT22;10632;51.276;7.116;2022-08-19T13:19:00;26.00;99.40
20946;DHT22;10632;51.276;7.116;2022-08-19T13:21:30;25.90;99.50
20946;DHT22;10632;51.276;7.116;2022-08-19T13:23:57;25.90;99.60
20946;DHT22;10632;51.276;7.116;2022-08-19T13:26:24;25.90;99.60
20946;DHT22;10632;51.276;7.116;2022-08-19T13:28:54;25.80;99.90
20946;DHT22;10632;51.276;7.116;2022-08-19T13:31:41;25.90;99.30
20946;DHT22;10632;51.276;7.116;2022-08-19T13:34:28;26.00;99.30
20946;DHT22;10632;51.276;7.116;2022-08-19T13:36:56;26.00;98.50
20946;DHT22;10632;51.276;7.116;2022-08-19T13:39:28;26.00;98.40
20946;DHT22;10632;51.276;7.116;2022-08-19T13:41:55;26.10;98.20
20946;DHT22;10632;51.276;7.116;2022-08-19T13:44:23;26.20;97.50
20946;DHT22;10632;51.276;7.116;2022-08-19T13:46:51;26.20;97.70
20946;DHT22;10632;51.276;7.116;2022-08-19T13:49:19;26.10;98.10
20946;DHT22;10632;51.276;7.116;2022-08-19T13:51:46;26.10;98.50
20946;DHT22;10632;51.276;7.116;2022-08-19T13:54:13;26.10;98.20
20946;DHT22;10632;51.276;7.116;2022-08-19T13:56:41;26.10;98.20
20946;DHT22;10632;51.276;7.116;2022-08-19T13:59:09;26.10;98.10
20946;DHT22;10632;51.276;7.116;2022-08-19T14:01:36;26.10;97.70
20946;DHT22;10632;51.276;7.116;2022-08-19T14:04:06;26.10;97.60
20946;DHT22;10632;51.276;7.116;2022-08-19T14:06:33;26.00;97.60
20946;DHT22;10632;51.276;7.116;2022-08-19T14:09:00;25.90;98.00
20946;DHT22;10632;51.276;7.116;2022-08-19T14:11:28;25.90;97.50
20946;DHT22;10632;51.276;7.116;2022-08-19T14:13:55;25.90;97.50
20946;DHT22;10632;51.276;7.116;2022-08-19T14:16:22;25.80;97.50
20946;DHT22;10632;51.276;7.116;2022-08-19T14:18:49;25.80;97.20
20946;DHT22;10632;51.276;7.116;2022-08-19T14:21:21;25.70;97.20
20946;DHT22;10632;51.276;7.116;2022-08-19T14:23:49;25.70;96.80
20946;DHT22;10632;51.276;7.116;2022-08-19T14:26:18;25.70;97.30
20946;DHT22;10632;51.276;7.116;2022-08-19T14:28:45;25.70;97.30
20946;DHT22;10632;51.276;7.116;2022-08-19T14:31:14;25.70;97.50
20946;DHT22;10632;51.276;7.116;2022-08-19T14:33:44;25.70;97.90
20946;DHT22;10632;51.276;7.116;2022-08-19T14:36:11;25.70;98.00
20946;DHT22;10632;51.276;7.116;2022-08-19T14:38:40;25.70;98.00
20946;DHT22;10632;51.276;7.116;2022-08-19T14:41:13;25.70;97.60
20946;DHT22;10632;51.276;7.116;2022-08-19T14:43:45;25.70;97.20
20946;DHT22;10632;51.276;7.116;2022-08-19T14:46:13;25.70;96.80
20946;DHT22;10632;51.276;7.116;2022-08-19T14:48:41;25.70;96.60
20946;DHT22;10632;51.276;7.116;2022-08-19T14:51:08;25.70;96.70
20946;DHT22;10632;51.276;7.116;2022-08-19T14:53:36;25.80;96.80
20946;DHT22;10632;51.276;7.116;2022-08-19T14:56:09;25.90;96.50
20946;DHT22;10632;51.276;7.116;2022-08-19T14:58:37;25.90;96.10
20946;DHT22;10632;51.276;7.116;2022-08-19T15:01:06;25.80;95.60
20946;DHT22;10632;51.276;7.116;2022-08-19T15:03:33;25.70;95.80
20946;DHT22;10632;51.276;7.116;2022-08-19T15:06:02;25.60;96.30
20946;DHT22;10632;51.276;7.116;2022-08-19T15:08:31;25.60;97.10
20946;DHT22;10632;51.276;7.116;2022-08-19T15:11:00;25.60;96.90
20946;DHT22;10632;51.276;7.116;2022-08-19T15:13:29;25.60;96.80
20946;DHT22;10632;51.276;7.116;2022-08-19T15:15:56;25.70;96.80
20946;DHT22;10632;51.276;7.116;2022-08-19T15:18:24;25.60;96.90
20946;DHT22;10632;51.276;7.116;2022-08-19T15:20:51;25.60;96.80
20946;DHT22;10632;51.276;7.116;2022-08-19T15:23:19;25.50;96.90
20946;DHT22;10632;51.276;7.116;2022-08-19T15:25:46;25.50;96.80
20946;DHT22;10632;51.276;7.116;2022-08-19T15:28:13;25.50;96.20
20946;DHT22;10632;51.276;7.116;2022-08-19T15:30:42;25.50;96.50
20946;DHT22;10632;51.276;7.116;2022-08-19T15:33:10;25.50;96.60
20946;DHT22;10632;51.276;7.116;2022-08-19T15:35:40;25.60;96.60
20946;DHT22;10632;51.276;7.116;2022-08-19T15:38:11;25.60;96.30
20946;DHT22;10632;51.276;7.116;2022-08-19T15:40:39;25.50;96.40
20946;DHT22;10632;51.276;7.116;2022-08-19T15:43:07;25.40;96.60